Terminal Aerodrome Forecast
Issued by NWS

Home | Current Version | Previous Version | Text Only | Print | Product List | Glossary On
Versions: 1 2 3 4 5 6 7 8 9 10 11 12 13
039
FTUS45 KREV 280006 AAA
TAFMMH
TAF AMD
KMMH 280006Z 2800/2824 29010G20KT P6SM VCTS SCT060CB
      TEMPO 2800/2802 6SM -SHRA BKN040 OVC060
     FM280300 29007KT P6SM FEW080
     FM282100 12007KT P6SM VCTS BKN050CB=

USA.gov is the U.S. government's official web portal to all federal, state and local government web resources and services.